createdAt,value
2022-10-17T00:02:15.154Z,75.44
2022-10-17T00:12:22.174Z,75.45
2022-10-17T00:22:27.917Z,75.70
2022-10-17T00:32:35.015Z,75.62
2022-10-17T00:42:42.190Z,75.60
2022-10-17T00:52:50.114Z,75.57
2022-10-17T01:02:57.139Z,75.66
2022-10-17T01:13:04.519Z,75.69
2022-10-17T01:23:24.474Z,75.91
2022-10-17T01:33:32.341Z,75.87
2022-10-17T01:43:45.489Z,76.39
2022-10-17T01:53:51.323Z,76.54
2022-10-17T02:03:59.497Z,76.20
2022-10-17T02:14:14.837Z,76.08
2022-10-17T02:24:19.853Z,76.09
2022-10-17T02:34:32.083Z,76.31
2022-10-17T02:44:41.871Z,76.63
2022-10-17T02:54:46.995Z,76.60
2022-10-17T03:04:54.820Z,77.03
2022-10-17T03:15:02.299Z,77.40
2022-10-17T03:25:07.024Z,77.73
2022-10-17T03:35:14.941Z,78.06
2022-10-17T03:45:22.394Z,78.26
2022-10-17T03:55:29.719Z,78.44
2022-10-17T04:05:36.878Z,78.50
2022-10-17T04:15:43.892Z,78.70
2022-10-17T04:25:50.964Z,78.91
2022-10-17T04:35:59.272Z,79.15
2022-10-17T04:46:07.078Z,79.37
2022-10-17T04:56:15.709Z,79.48
2022-10-17T05:06:22.903Z,79.62
2022-10-17T05:16:31.215Z,79.65
2022-10-17T05:26:38.559Z,79.66
2022-10-17T05:36:45.628Z,79.95
2022-10-17T05:46:53.093Z,79.98
2022-10-17T06:07:06.716Z,80.54
2022-10-17T06:17:16.265Z,80.59
2022-10-17T06:27:24.069Z,80.11
2022-10-17T06:37:35.465Z,80.03
2022-10-17T06:47:44.207Z,79.85
2022-10-17T06:57:52.590Z,79.85
2022-10-17T07:07:58.613Z,79.54
2022-10-17T07:18:06.313Z,79.20
2022-10-17T07:28:13.479Z,78.68
2022-10-17T07:38:18.903Z,76.37
2022-10-17T07:48:26.979Z,75.07
2022-10-17T07:58:34.048Z,73.58
2022-10-17T08:08:41.708Z,72.11
2022-10-17T08:18:48.786Z,70.98
2022-10-17T08:28:56.144Z,70.26
2022-10-17T08:39:04.120Z,69.10
2022-10-17T08:49:12.147Z,67.67
2022-10-17T08:59:22.973Z,66.73
2022-10-17T09:09:30.806Z,65.72
2022-10-17T09:19:38.260Z,65.41
2022-10-17T09:29:49.427Z,65.72
2022-10-17T09:39:56.522Z,64.42
2022-10-17T09:50:05.835Z,63.73
2022-10-17T10:00:24.905Z,63.14
2022-10-17T10:10:33.861Z,62.89
2022-10-17T10:20:42.182Z,62.34
2022-10-17T10:30:48.376Z,61.95
2022-10-17T10:40:55.794Z,61.63
2022-10-17T10:51:04.027Z,61.29
2022-10-17T11:01:09.377Z,60.07
2022-10-17T11:11:18.942Z,59.24
2022-10-17T11:31:36.215Z,58.88
2022-10-17T11:41:41.327Z,58.32
2022-10-17T11:52:04.888Z,57.68
2022-10-17T12:02:10.187Z,57.75
2022-10-17T12:12:25.158Z,57.10
2022-10-17T12:22:33.299Z,57.52
2022-10-17T12:33:05.748Z,56.92
2022-10-17T12:43:45.598Z,56.88
2022-10-17T12:53:51.152Z,57.08
2022-10-17T13:04:02.522Z,57.24
2022-10-17T13:14:16.647Z,56.18
2022-10-17T13:24:29.527Z,56.23
2022-10-17T13:34:37.083Z,55.87
2022-10-17T13:44:44.200Z,55.44
2022-10-17T14:05:16.656Z,55.51
2022-10-17T14:15:25.974Z,55.69
2022-10-17T14:25:31.600Z,55.71
2022-10-17T14:35:42.049Z,55.93
2022-10-17T14:45:49.780Z,56.16
2022-10-17T14:56:02.480Z,56.26
2022-10-17T15:06:11.880Z,56.47
2022-10-17T15:16:19.724Z,56.93
2022-10-17T15:26:31.370Z,57.19
2022-10-17T15:36:41.274Z,57.63
2022-10-17T15:46:48.687Z,58.08
2022-10-17T15:56:53.436Z,58.62
2022-10-17T16:07:00.574Z,59.23
2022-10-17T16:17:11.050Z,59.87
2022-10-17T16:27:18.485Z,60.35
2022-10-17T16:37:25.993Z,60.79
2022-10-17T16:47:34.893Z,61.58
2022-10-17T17:07:48.035Z,62.32
2022-10-17T17:17:55.857Z,62.67
2022-10-17T17:28:05.207Z,63.31
2022-10-17T17:38:12.434Z,63.94
2022-10-17T17:48:20.523Z,64.54
2022-10-17T17:58:26.527Z,64.63
2022-10-17T18:08:34.922Z,64.63
2022-10-17T18:18:43.522Z,64.78
2022-10-17T18:28:49.307Z,65.00
2022-10-17T18:38:57.379Z,65.06
2022-10-17T18:49:04.014Z,65.05
2022-10-17T18:59:11.567Z,65.07
2022-10-17T19:09:19.335Z,64.99
2022-10-17T19:19:27.711Z,65.32
2022-10-17T19:29:35.060Z,65.44
2022-10-17T19:39:39.949Z,65.57
2022-10-17T19:49:50.002Z,65.54
2022-10-17T19:59:57.750Z,65.52
2022-10-17T20:10:05.208Z,65.45
2022-10-17T20:20:10.872Z,65.33
2022-10-17T20:30:18.465Z,65.42
2022-10-17T20:40:40.743Z,65.32
2022-10-17T20:50:48.080Z,65.27
2022-10-17T21:00:55.224Z,65.20
2022-10-17T21:11:10.195Z,65.15
2022-10-17T21:21:19.237Z,64.93
2022-10-17T21:31:28.660Z,65.04
2022-10-17T21:41:35.981Z,64.92
2022-10-17T21:51:44.327Z,64.81
2022-10-17T22:01:51.570Z,64.71
2022-10-17T22:11:59.570Z,64.61
2022-10-17T22:22:07.601Z,64.54
2022-10-17T22:32:19.957Z,64.39
2022-10-17T22:42:29.446Z,64.26
2022-10-17T22:52:36.581Z,64.11
2022-10-17T23:02:43.737Z,64.24
2022-10-17T23:12:51.194Z,64.26
2022-10-17T23:22:58.941Z,64.34
2022-10-17T23:33:06.895Z,64.46
2022-10-17T23:43:13.919Z,64.36
2022-10-17T23:53:21.115Z,64.52
